Terminal Aerodrome Forecast
Issued by NWS Sterling, VA

Current Version | Previous Version | Graphics & Text | Print | Product List | Glossary On
Versions: 1 2 3 4 5 6 7 8 9 10 11 12 13 14 15 16 17 18 19
000
FTUS41 KLWX 311738
TAFMRB
TAF
KMRB 311738Z 3118/0118 17007KT P6SM VCTS BKN050CB
     FM312100 21009KT P6SM -TSRA BKN050CB
     FM010200 19004KT P6SM VCTS BKN050CB
     FM010600 VRB03KT 3SM BR BKN090
     FM011300 VRB03KT P6SM -SHRA BKN040
     FM011600 25004KT P6SM -SHRA BKN050=

USA.gov is the U.S. government's official web portal to all federal, state and local government web resources and services.